Currently 51°F in Riverside (Orangecrest), California, USA
51°F
51°F / 50°F
2 mph W
0.00"
Tuesday, December 10, 2019 12:10 AM PST

Riverside (Orangecrest), California Weather Summary
Last 36 Hours

Temperature Winds Hourly Humidity Dewpoint
Time Report Norm Report Norm Max Gusts Precip. Rpt. Norm Rpt. Norm Pressure
1Tue 12:10 AM  50.8°F  56°F  2 mph W  3 mph  4 mph  0.00"  81%  42%  45°F  32°F  30.20"
2Tue 12:09 AM  50.8°F  56°F  2 mph W  3 mph  4 mph  ----  81%  42%  45°F  32°F  30.19"
3Tue 12:00 AM  50.4°F  56°F  3 mph W  3 mph  4 mph  0.00"  82%  42%  45°F  33°F  30.20"
Mon 11:00 PM  50.2°F  57°F  3 mph W  4 mph  5 mph  0.00"  90%  42%  47°F  33°F  30.18"
Mon 10:00 PM  50.5°F  57°F  4 mph W  4 mph  4 mph  0.00"  90%  42%  47°F  33°F  30.18"
Mon 09:00 PM  52.8°F  58°F  1 mph SW  4 mph  4 mph  0.00"  76%  41%  45°F  33°F  30.16"
Mon 08:00 PM  54.2°F  58°F  2 mph W  4 mph  10 mph  0.00"  69%  40%  44°F  33°F  30.15"
Mon 07:00 PM  55.5°F  59°F  7 mph W  4 mph  10 mph  0.00"  65%  39%  44°F  33°F  30.13"
Mon 06:00 PM  56.5°F  60°F  6 mph W  5 mph  13 mph  0.00"  63%  38%  43°F  33°F  30.11"
Mon 05:00 PM  58.2°F  61°F  5 mph W  6 mph  9 mph  0.00"  57%  37%  43°F  33°F  30.09"
Mon 04:00 PM  60.9°F  63°F  5 mph W  6 mph  12 mph  0.00"  49%  34%  41°F  33°F  30.08"
Mon 03:00 PM  61.6°F  65°F  7 mph W  6 mph  14 mph  0.00"  53%  32%  44°F  33°F  30.08"
Mon 02:00 PM  61.7°F  65°F  4 mph W  7 mph  17 mph  0.00"  57%  31%  46°F  32°F  30.07"
Mon 01:00 PM  59.9°F  65°F  7 mph SW  6 mph  16 mph  0.00"  64%  31%  47°F  32°F  30.07"
Mon 12:00 PM  58.9°F  64°F  8 mph S  6 mph  12 mph  0.00"  59%  32%  44°F  33°F  30.09"
Mon 11:00 AM  57.9°F  62°F  9 mph SW  6 mph  12 mph  0.00"  56%  35%  42°F  34°F  30.11"
Mon 10:00 AM  52.9°F  60°F  3 mph SW  5 mph  6 mph  0.00"  84%  38%  48°F  34°F  30.13"
Mon 09:00 AM  52.7°F  57°F  2 mph SW  5 mph  4 mph  0.00"  84%  41%  48°F  33°F  30.12"
Mon 08:00 AM  50.3°F  56°F  1 mph SW  4 mph  4 mph  0.00"  86%  42%  46°F  32°F  30.09"
Mon 07:00 AM  49.6°F  54°F  calm  4 mph  8 mph  0.00"  83%  43%  44°F  31°F  30.07"
Mon 06:00 AM  50.6°F  54°F  2 mph SW  4 mph  8 mph  0.00"  84%  43%  46°F  31°F  30.06"
Mon 05:00 AM  49.7°F  54°F  4 mph SW  3 mph  7 mph  0.02"  93%  46%  48°F  33°F  30.06"
Mon 04:00 AM  50.1°F  54°F  3 mph SW  4 mph  7 mph  0.00"  93%  46%  48°F  33°F  30.05"
Mon 03:00 AM  50.4°F  55°F  3 mph SW  3 mph  6 mph  0.00"  94%  45%  49°F  33°F  30.05"
Mon 02:00 AM  50.9°F  55°F  calm  3 mph  8 mph  0.00"  93%  45%  49°F  33°F  30.05"
Mon 01:00 AM  50.9°F  55°F  calm  3 mph  7 mph  0.00"  93%  45%  49°F  33°F  30.06"
Mon 12:00 AM  51.1°F  56°F  1 mph SW  3 mph  5 mph  0.00"  92%  44%  49°F  33°F  30.06"
Sun 11:00 PM  51.6°F  56°F  3 mph SW  4 mph  7 mph  0.00"  91%  44%  49°F  34°F  30.06"
Sun 10:00 PM  51.7°F  57°F  4 mph SW  4 mph  6 mph  0.00"  92%  43%  49°F  34°F  30.05"
Sun 09:00 PM  52.0°F  57°F  4 mph SW  4 mph  9 mph  0.00"  92%  42%  50°F  34°F  30.03"
Sun 08:00 PM  52.3°F  58°F  5 mph SW  4 mph  11 mph  0.00"  91%  42%  50°F  34°F  30.03"
Sun 07:00 PM  53.6°F  58°F  4 mph SW  4 mph  8 mph  0.00"  90%  40%  51°F  33°F  30.03"
Sun 06:00 PM  54.2°F  59°F  2 mph SW  5 mph  7 mph  0.00"  89%  39%  51°F  33°F  30.03"
Sun 05:00 PM  55.0°F  61°F  4 mph SW  6 mph  10 mph  0.00"  89%  37%  52°F  33°F  30.03"
Sun 04:00 PM  55.8°F  63°F  5 mph SW  6 mph  17 mph  0.00"  87%  34%  52°F  33°F  30.03"
Sun 03:00 PM  60.4°F  64°F  8 mph W  6 mph  16 mph  0.00"  59%  32%  45°F  33°F  30.01"
Sun 02:00 PM  61.1°F  65°F  8 mph SW  7 mph  15 mph  0.00"  60%  31%  47°F  32°F  30.02"
Sun 01:00 PM  61.0°F  65°F  6 mph SW  6 mph  12 mph  0.00"  63%  31%  48°F  32°F  30.03"
Sun 12:00 PM  59.0°F  64°F  5 mph SW  6 mph  10 mph  0.00"  75%  32%  51°F  33°F  30.07"

  1. Current weather data. No green row appears if the current weather data is also the high or low for the current day.
  2. High temperature for the current day.
  3. Low temperature for the current day.

The Riverside (Orangecrest), California weather pages are a service of WeatherCurrents.
Copyright ©2019  WeatherCurrents. All rights reserved. - Submit questions and comments - Privacy Policy

This page automatically refreshes every 10 minutes.